sensor_id;sensor_type;location;lat;lon;timestamp;P1;durP1;ratioP1;P2;durP2;ratioP2
3257;SDS011;1641;51.306;12.384;2023-02-15T00:01:14;75.80;;;33.67;;
3257;SDS011;1641;51.306;12.384;2023-02-15T00:03:39;70.72;;;30.35;;
3257;SDS011;1641;51.306;12.384;2023-02-15T00:06:05;79.38;;;32.22;;
3257;SDS011;1641;51.306;12.384;2023-02-15T00:08:30;74.45;;;33.33;;
3257;SDS011;1641;51.306;12.384;2023-02-15T00:11:04;69.25;;;34.25;;
3257;SDS011;1641;51.306;12.384;2023-02-15T00:13:34;77.53;;;32.10;;
3257;SDS011;1641;51.306;12.384;2023-02-15T00:16:06;71.57;;;32.50;;
3257;SDS011;1641;51.306;12.384;2023-02-15T00:18:32;72.28;;;33.35;;
3257;SDS011;1641;51.306;12.384;2023-02-15T00:20:58;67.35;;;31.67;;
3257;SDS011;1641;51.306;12.384;2023-02-15T00:23:28;67.05;;;31.02;;
3257;SDS011;1641;51.306;12.384;2023-02-15T00:26:04;70.65;;;30.70;;
3257;SDS011;1641;51.306;12.384;2023-02-15T00:28:33;75.75;;;33.55;;
3257;SDS011;1641;51.306;12.384;2023-02-15T00:31:17;68.00;;;31.88;;
3257;SDS011;1641;51.306;12.384;2023-02-15T00:33:42;69.38;;;29.67;;
3257;SDS011;1641;51.306;12.384;2023-02-15T00:36:08;65.75;;;32.33;;
3257;SDS011;1641;51.306;12.384;2023-02-15T00:38:35;69.95;;;30.90;;
3257;SDS011;1641;51.306;12.384;2023-02-15T00:41:02;77.13;;;31.67;;
3257;SDS011;1641;51.306;12.384;2023-02-15T00:43:30;70.00;;;33.03;;
3257;SDS011;1641;51.306;12.384;2023-02-15T00:45:56;69.40;;;30.75;;
3257;SDS011;1641;51.306;12.384;2023-02-15T00:48:22;70.90;;;31.83;;
3257;SDS011;1641;51.306;12.384;2023-02-15T00:50:55;75.15;;;31.55;;
3257;SDS011;1641;51.306;12.384;2023-02-15T00:53:22;76.78;;;31.40;;
3257;SDS011;1641;51.306;12.384;2023-02-15T00:55:48;66.78;;;30.50;;
3257;SDS011;1641;51.306;12.384;2023-02-15T00:58:14;64.57;;;30.45;;
3257;SDS011;1641;51.306;12.384;2023-02-15T01:00:40;63.90;;;28.20;;
3257;SDS011;1641;51.306;12.384;2023-02-15T01:03:07;66.30;;;30.65;;
3257;SDS011;1641;51.306;12.384;2023-02-15T01:05:32;68.07;;;29.40;;
3257;SDS011;1641;51.306;12.384;2023-02-15T01:07:58;70.95;;;30.40;;
3257;SDS011;1641;51.306;12.384;2023-02-15T01:10:24;57.83;;;28.23;;
3257;SDS011;1641;51.306;12.384;2023-02-15T01:12:51;69.40;;;30.75;;
3257;SDS011;1641;51.306;12.384;2023-02-15T01:15:18;65.05;;;29.00;;
3257;SDS011;1641;51.306;12.384;2023-02-15T01:17:43;64.95;;;28.60;;
3257;SDS011;1641;51.306;12.384;2023-02-15T01:20:14;65.50;;;29.30;;
3257;SDS011;1641;51.306;12.384;2023-02-15T01:22:41;56.83;;;27.23;;
3257;SDS011;1641;51.306;12.384;2023-02-15T01:25:06;62.92;;;28.42;;
3257;SDS011;1641;51.306;12.384;2023-02-15T01:27:31;59.53;;;29.73;;
3257;SDS011;1641;51.306;12.384;2023-02-15T01:29:57;57.28;;;27.88;;
3257;SDS011;1641;51.306;12.384;2023-02-15T01:32:22;62.72;;;28.90;;
3257;SDS011;1641;51.306;12.384;2023-02-15T01:34:48;57.97;;;28.60;;
3257;SDS011;1641;51.306;12.384;2023-02-15T01:37:13;65.47;;;28.77;;
3257;SDS011;1641;51.306;12.384;2023-02-15T01:39:39;59.25;;;28.90;;
3257;SDS011;1641;51.306;12.384;2023-02-15T01:42:05;62.58;;;27.88;;
3257;SDS011;1641;51.306;12.384;2023-02-15T01:50:07;57.33;;;26.45;;
3257;SDS011;1641;51.306;12.384;2023-02-15T01:52:39;55.40;;;27.83;;
3257;SDS011;1641;51.306;12.384;2023-02-15T01:55:08;58.55;;;28.27;;
3257;SDS011;1641;51.306;12.384;2023-02-15T01:57:34;52.42;;;25.83;;
3257;SDS011;1641;51.306;12.384;2023-02-15T02:00:00;61.95;;;26.38;;
3257;SDS011;1641;51.306;12.384;2023-02-15T02:02:27;54.10;;;26.30;;
3257;SDS011;1641;51.306;12.384;2023-02-15T02:05:03;55.22;;;26.48;;
3257;SDS011;1641;51.306;12.384;2023-02-15T02:07:36;54.28;;;25.45;;
3257;SDS011;1641;51.306;12.384;2023-02-15T02:10:04;52.40;;;26.65;;
3257;SDS011;1641;51.306;12.384;2023-02-15T02:12:31;60.67;;;25.63;;
3257;SDS011;1641;51.306;12.384;2023-02-15T02:14:57;49.35;;;25.35;;
3257;SDS011;1641;51.306;12.384;2023-02-15T02:17:34;53.75;;;25.92;;
3257;SDS011;1641;51.306;12.384;2023-02-15T02:28:37;57.33;;;27.92;;
3257;SDS011;1641;51.306;12.384;2023-02-15T02:31:31;46.40;;;24.70;;
3257;SDS011;1641;51.306;12.384;2023-02-15T02:34:13;48.60;;;25.17;;
3257;SDS011;1641;51.306;12.384;2023-02-15T02:36:49;52.38;;;26.52;;
3257;SDS011;1641;51.306;12.384;2023-02-15T02:42:37;50.00;;;25.27;;
3257;SDS011;1641;51.306;12.384;2023-02-15T02:45:06;56.55;;;27.85;;
3257;SDS011;1641;51.306;12.384;2023-02-15T02:47:43;57.78;;;27.27;;
3257;SDS011;1641;51.306;12.384;2023-02-15T02:50:17;50.70;;;26.23;;
3257;SDS011;1641;51.306;12.384;2023-02-15T02:53:02;55.63;;;27.85;;
3257;SDS011;1641;51.306;12.384;2023-02-15T02:55:29;56.10;;;27.00;;
3257;SDS011;1641;51.306;12.384;2023-02-15T03:00:31;53.95;;;27.30;;
3257;SDS011;1641;51.306;12.384;2023-02-15T03:03:12;60.08;;;28.42;;
3257;SDS011;1641;51.306;12.384;2023-02-15T03:05:44;58.50;;;27.95;;
3257;SDS011;1641;51.306;12.384;2023-02-15T03:08:13;49.92;;;26.80;;
3257;SDS011;1641;51.306;12.384;2023-02-15T03:11:04;55.63;;;27.92;;
3257;SDS011;1641;51.306;12.384;2023-02-15T03:13:30;53.90;;;27.15;;
3257;SDS011;1641;51.306;12.384;2023-02-15T03:16:03;50.00;;;26.23;;
3257;SDS011;1641;51.306;12.384;2023-02-15T03:21:57;51.40;;;26.55;;
3257;SDS011;1641;51.306;12.384;2023-02-15T03:30:32;57.08;;;26.25;;
3257;SDS011;1641;51.306;12.384;2023-02-15T03:33:04;52.05;;;25.95;;
3257;SDS011;1641;51.306;12.384;2023-02-15T03:41:32;52.78;;;26.25;;
3257;SDS011;1641;51.306;12.384;2023-02-15T03:54:31;51.85;;;24.45;;
3257;SDS011;1641;51.306;12.384;2023-02-15T03:57:12;49.45;;;23.90;;
3257;SDS011;1641;51.306;12.384;2023-02-15T03:59:59;48.43;;;23.50;;
3257;SDS011;1641;51.306;12.384;2023-02-15T04:06:00;47.13;;;23.33;;
3257;SDS011;1641;51.306;12.384;2023-02-15T04:08:27;49.85;;;24.10;;
3257;SDS011;1641;51.306;12.384;2023-02-15T04:11:12;44.83;;;22.92;;
3257;SDS011;1641;51.306;12.384;2023-02-15T04:13:38;47.90;;;22.90;;
3257;SDS011;1641;51.306;12.384;2023-02-15T04:16:03;46.33;;;21.52;;
3257;SDS011;1641;51.306;12.384;2023-02-15T04:18:30;44.55;;;22.27;;
3257;SDS011;1641;51.306;12.384;2023-02-15T04:21:14;44.97;;;21.92;;
3257;SDS011;1641;51.306;12.384;2023-02-15T04:23:59;38.95;;;20.95;;
3257;SDS011;1641;51.306;12.384;2023-02-15T04:30:01;37.00;;;20.17;;
3257;SDS011;1641;51.306;12.384;2023-02-15T04:32:27;37.97;;;20.08;;
3257;SDS011;1641;51.306;12.384;2023-02-15T04:35:01;41.08;;;21.50;;
3257;SDS011;1641;51.306;12.384;2023-02-15T04:37:29;38.85;;;20.80;;
3257;SDS011;1641;51.306;12.384;2023-02-15T04:39:55;40.45;;;20.58;;
3257;SDS011;1641;51.306;12.384;2023-02-15T04:42:21;42.22;;;20.58;;
3257;SDS011;1641;51.306;12.384;2023-02-15T04:47:37;37.35;;;20.02;;
3257;SDS011;1641;51.306;12.384;2023-02-15T04:50:02;40.78;;;19.92;;
3257;SDS011;1641;51.306;12.384;2023-02-15T04:52:28;36.92;;;20.17;;
3257;SDS011;1641;51.306;12.384;2023-02-15T04:54:53;41.50;;;19.85;;
3257;SDS011;1641;51.306;12.384;2023-02-15T04:57:18;39.00;;;19.50;;
3257;SDS011;1641;51.306;12.384;2023-02-15T04:59:44;37.08;;;21.17;;
3257;SDS011;1641;51.306;12.384;2023-02-15T05:02:09;35.65;;;18.85;;
3257;SDS011;1641;51.306;12.384;2023-02-15T05:04:34;40.03;;;20.95;;
3257;SDS011;1641;51.306;12.384;2023-02-15T05:06:59;42.67;;;19.10;;
3257;SDS011;1641;51.306;12.384;2023-02-15T05:09:25;38.95;;;19.83;;
3257;SDS011;1641;51.306;12.384;2023-02-15T05:11:50;41.03;;;19.30;;
3257;SDS011;1641;51.306;12.384;2023-02-15T05:14:16;43.00;;;21.08;;
3257;SDS011;1641;51.306;12.384;2023-02-15T05:16:42;36.33;;;19.88;;
3257;SDS011;1641;51.306;12.384;2023-02-15T05:19:08;40.00;;;19.70;;
3257;SDS011;1641;51.306;12.384;2023-02-15T05:21:34;38.80;;;19.85;;
3257;SDS011;1641;51.306;12.384;2023-02-15T05:24:00;36.47;;;19.65;;
3257;SDS011;1641;51.306;12.384;2023-02-15T05:26:45;34.85;;;18.42;;
3257;SDS011;1641;51.306;12.384;2023-02-15T05:34:47;35.80;;;18.63;;
3257;SDS011;1641;51.306;12.384;2023-02-15T05:37:13;36.75;;;20.27;;
3257;SDS011;1641;51.306;12.384;2023-02-15T05:39:39;33.15;;;18.98;;
3257;SDS011;1641;51.306;12.384;2023-02-15T05:42:09;36.42;;;19.35;;
3257;SDS011;1641;51.306;12.384;2023-02-15T05:44:34;41.60;;;20.05;;
3257;SDS011;1641;51.306;12.384;2023-02-15T05:46:59;39.38;;;20.25;;
3257;SDS011;1641;51.306;12.384;2023-02-15T05:52:08;34.65;;;19.70;;
3257;SDS011;1641;51.306;12.384;2023-02-15T05:54:34;42.58;;;20.48;;
3257;SDS011;1641;51.306;12.384;2023-02-15T05:56:59;35.88;;;18.92;;
3257;SDS011;1641;51.306;12.384;2023-02-15T05:59:24;40.20;;;19.38;;
3257;SDS011;1641;51.306;12.384;2023-02-15T06:01:53;33.25;;;18.65;;
3257;SDS011;1641;51.306;12.384;2023-02-15T06:04:21;39.83;;;19.75;;
3257;SDS011;1641;51.306;12.384;2023-02-15T06:06:46;37.63;;;19.35;;
3257;SDS011;1641;51.306;12.384;2023-02-15T06:09:12;36.03;;;19.70;;
3257;SDS011;1641;51.306;12.384;2023-02-15T06:11:37;42.72;;;21.25;;
3257;SDS011;1641;51.306;12.384;2023-02-15T06:14:02;46.33;;;23.67;;
3257;SDS011;1641;51.306;12.384;2023-02-15T06:16:28;42.13;;;22.23;;
3257;SDS011;1641;51.306;12.384;2023-02-15T06:19:05;43.53;;;20.88;;
3257;SDS011;1641;51.306;12.384;2023-02-15T06:21:40;36.33;;;19.88;;
3257;SDS011;1641;51.306;12.384;2023-02-15T06:24:05;38.30;;;20.83;;
3257;SDS011;1641;51.306;12.384;2023-02-15T06:26:36;39.53;;;19.63;;
3257;SDS011;1641;51.306;12.384;2023-02-15T06:29:02;41.90;;;20.80;;
3257;SDS011;1641;51.306;12.384;2023-02-15T06:31:27;42.00;;;21.88;;
3257;SDS011;1641;51.306;12.384;2023-02-15T06:33:53;43.83;;;21.35;;
3257;SDS011;1641;51.306;12.384;2023-02-15T06:36:38;36.63;;;19.92;;
3257;SDS011;1641;51.306;12.384;2023-02-15T06:39:03;40.67;;;19.90;;
3257;SDS011;1641;51.306;12.384;2023-02-15T06:41:29;43.58;;;20.38;;
3257;SDS011;1641;51.306;12.384;2023-02-15T06:43:54;38.03;;;20.48;;
3257;SDS011;1641;51.306;12.384;2023-02-15T06:46:19;41.08;;;20.70;;
3257;SDS011;1641;51.306;12.384;2023-02-15T06:48:45;36.67;;;19.23;;
3257;SDS011;1641;51.306;12.384;2023-02-15T06:51:10;31.75;;;17.80;;
3257;SDS011;1641;51.306;12.384;2023-02-15T06:53:35;75.65;;;20.08;;
3257;SDS011;1641;51.306;12.384;2023-02-15T06:56:05;42.92;;;17.98;;
3257;SDS011;1641;51.306;12.384;2023-02-15T06:58:33;37.10;;;18.95;;
3257;SDS011;1641;51.306;12.384;2023-02-15T07:01:00;35.28;;;19.20;;
3257;SDS011;1641;51.306;12.384;2023-02-15T07:03:25;40.38;;;20.40;;
3257;SDS011;1641;51.306;12.384;2023-02-15T07:05:54;38.10;;;17.35;;
3257;SDS011;1641;51.306;12.384;2023-02-15T07:08:24;35.63;;;17.65;;
3257;SDS011;1641;51.306;12.384;2023-02-15T07:10:50;38.22;;;19.27;;
3257;SDS011;1641;51.306;12.384;2023-02-15T07:13:17;45.72;;;21.85;;
3257;SDS011;1641;51.306;12.384;2023-02-15T07:15:42;34.67;;;19.23;;
3257;SDS011;1641;51.306;12.384;2023-02-15T07:18:08;38.28;;;20.63;;
3257;SDS011;1641;51.306;12.384;2023-02-15T07:20:35;35.38;;;17.60;;
3257;SDS011;1641;51.306;12.384;2023-02-15T07:23:00;32.65;;;18.05;;
3257;SDS011;1641;51.306;12.384;2023-02-15T07:25:26;36.08;;;18.30;;
3257;SDS011;1641;51.306;12.384;2023-02-15T07:27:55;33.28;;;17.95;;
3257;SDS011;1641;51.306;12.384;2023-02-15T07:30:26;31.95;;;17.42;;
3257;SDS011;1641;51.306;12.384;2023-02-15T07:32:58;31.02;;;17.63;;
3257;SDS011;1641;51.306;12.384;2023-02-15T07:35:49;30.40;;;16.67;;
3257;SDS011;1641;51.306;12.384;2023-02-15T07:38:16;30.42;;;16.45;;
3257;SDS011;1641;51.306;12.384;2023-02-15T07:40:42;30.63;;;17.08;;
3257;SDS011;1641;51.306;12.384;2023-02-15T07:43:08;30.33;;;17.00;;
3257;SDS011;1641;51.306;12.384;2023-02-15T07:45:33;27.73;;;15.73;;
3257;SDS011;1641;51.306;12.384;2023-02-15T07:48:00;30.98;;;16.38;;
3257;SDS011;1641;51.306;12.384;2023-02-15T07:50:26;29.63;;;16.35;;
3257;SDS011;1641;51.306;12.384;2023-02-15T07:52:51;32.53;;;16.85;;
3257;SDS011;1641;51.306;12.384;2023-02-15T07:55:16;30.90;;;18.38;;
3257;SDS011;1641;51.306;12.384;2023-02-15T07:57:43;35.63;;;20.08;;
3257;SDS011;1641;51.306;12.384;2023-02-15T08:00:10;29.95;;;19.23;;
3257;SDS011;1641;51.306;12.384;2023-02-15T08:02:37;26.95;;;16.90;;
3257;SDS011;1641;51.306;12.384;2023-02-15T08:05:03;22.92;;;14.82;;
3257;SDS011;1641;51.306;12.384;2023-02-15T08:07:28;17.63;;;11.45;;
3257;SDS011;1641;51.306;12.384;2023-02-15T08:09:53;13.50;;;10.45;;
3257;SDS011;1641;51.306;12.384;2023-02-15T08:12:19;12.05;;;9.38;;
3257;SDS011;1641;51.306;12.384;2023-02-15T08:14:44;11.52;;;8.43;;
3257;SDS011;1641;51.306;12.384;2023-02-15T08:17:09;10.13;;;7.63;;
3257;SDS011;1641;51.306;12.384;2023-02-15T08:19:34;9.27;;;7.57;;
3257;SDS011;1641;51.306;12.384;2023-02-15T08:22:01;9.90;;;8.15;;
3257;SDS011;1641;51.306;12.384;2023-02-15T08:24:30;9.57;;;6.65;;
3257;SDS011;1641;51.306;12.384;2023-02-15T08:26:56;10.93;;;8.75;;
3257;SDS011;1641;51.306;12.384;2023-02-15T08:29:24;9.68;;;7.50;;
3257;SDS011;1641;51.306;12.384;2023-02-15T08:31:56;9.05;;;7.65;;
3257;SDS011;1641;51.306;12.384;2023-02-15T08:34:24;8.38;;;7.28;;
3257;SDS011;1641;51.306;12.384;2023-02-15T08:36:49;9.32;;;6.78;;
3257;SDS011;1641;51.306;12.384;2023-02-15T08:39:15;9.50;;;7.65;;
3257;SDS011;1641;51.306;12.384;2023-02-15T08:41:42;7.80;;;6.55;;
3257;SDS011;1641;51.306;12.384;2023-02-15T08:44:09;11.68;;;7.53;;
3257;SDS011;1641;51.306;12.384;2023-02-15T08:46:36;8.60;;;7.07;;
3257;SDS011;1641;51.306;12.384;2023-02-15T08:49:03;10.00;;;8.05;;
3257;SDS011;1641;51.306;12.384;2023-02-15T08:51:32;10.65;;;6.28;;
3257;SDS011;1641;51.306;12.384;2023-02-15T08:54:01;10.23;;;8.30;;
3257;SDS011;1641;51.306;12.384;2023-02-15T08:56:32;8.88;;;7.97;;
3257;SDS011;1641;51.306;12.384;2023-02-15T08:58:59;10.02;;;6.70;;
3257;SDS011;1641;51.306;12.384;2023-02-15T09:01:27;7.15;;;6.43;;
3257;SDS011;1641;51.306;12.384;2023-02-15T09:03:58;11.50;;;6.35;;
3257;SDS011;1641;51.306;12.384;2023-02-15T09:06:26;7.45;;;6.20;;
3257;SDS011;1641;51.306;12.384;2023-02-15T09:08:52;9.20;;;5.57;;
3257;SDS011;1641;51.306;12.384;2023-02-15T09:11:20;7.00;;;5.68;;
3257;SDS011;1641;51.306;12.384;2023-02-15T09:13:57;7.95;;;5.90;;
3257;SDS011;1641;51.306;12.384;2023-02-15T09:16:25;6.72;;;5.97;;
3257;SDS011;1641;51.306;12.384;2023-02-15T09:18:52;6.55;;;5.13;;
3257;SDS011;1641;51.306;12.384;2023-02-15T09:21:19;5.93;;;5.30;;
3257;SDS011;1641;51.306;12.384;2023-02-15T09:23:47;8.95;;;4.78;;
3257;SDS011;1641;51.306;12.384;2023-02-15T09:26:15;7.30;;;5.43;;
3257;SDS011;1641;51.306;12.384;2023-02-15T09:28:42;9.45;;;6.80;;
3257;SDS011;1641;51.306;12.384;2023-02-15T09:31:11;8.30;;;6.00;;
3257;SDS011;1641;51.306;12.384;2023-02-15T09:33:37;8.68;;;6.32;;
3257;SDS011;1641;51.306;12.384;2023-02-15T09:36:04;12.18;;;6.30;;
3257;SDS011;1641;51.306;12.384;2023-02-15T09:38:31;10.93;;;6.38;;
3257;SDS011;1641;51.306;12.384;2023-02-15T09:43:42;5.97;;;4.32;;
3257;SDS011;1641;51.306;12.384;2023-02-15T09:49:24;4.70;;;4.20;;
3257;SDS011;1641;51.306;12.384;2023-02-15T09:54:53;5.90;;;4.15;;
3257;SDS011;1641;51.306;12.384;2023-02-15T09:57:35;8.15;;;4.95;;
3257;SDS011;1641;51.306;12.384;2023-02-15T10:00:16;6.45;;;4.20;;
3257;SDS011;1641;51.306;12.384;2023-02-15T10:03:03;6.40;;;4.60;;
3257;SDS011;1641;51.306;12.384;2023-02-15T10:05:43;5.32;;;4.50;;
3257;SDS011;1641;51.306;12.384;2023-02-15T10:08:19;7.10;;;5.15;;
3257;SDS011;1641;51.306;12.384;2023-02-15T10:14:01;12.82;;;6.97;;
3257;SDS011;1641;51.306;12.384;2023-02-15T10:16:43;9.13;;;5.47;;
3257;SDS011;1641;51.306;12.384;2023-02-15T10:19:26;7.97;;;5.30;;
3257;SDS011;1641;51.306;12.384;2023-02-15T10:27:36;11.25;;;5.93;;
3257;SDS011;1641;51.306;12.384;2023-02-15T10:30:12;7.38;;;4.82;;
3257;SDS011;1641;51.306;12.384;2023-02-15T10:35:26;8.55;;;5.40;;
3257;SDS011;1641;51.306;12.384;2023-02-15T10:37:57;8.82;;;5.07;;
3257;SDS011;1641;51.306;12.384;2023-02-15T10:43:04;7.18;;;5.25;;
3257;SDS011;1641;51.306;12.384;2023-02-15T10:45:54;7.35;;;5.82;;
3257;SDS011;1641;51.306;12.384;2023-02-15T10:48:35;7.25;;;5.18;;
3257;SDS011;1641;51.306;12.384;2023-02-15T10:51:19;8.90;;;4.47;;
3257;SDS011;1641;51.306;12.384;2023-02-15T10:54:00;6.82;;;4.75;;
3257;SDS011;1641;51.306;12.384;2023-02-15T11:07:50;6.45;;;4.68;;
3257;SDS011;1641;51.306;12.384;2023-02-15T11:10:27;9.20;;;4.72;;
3257;SDS011;1641;51.306;12.384;2023-02-15T11:12:57;9.02;;;5.40;;
3257;SDS011;1641;51.306;12.384;2023-02-15T11:15:34;6.25;;;4.10;;
3257;SDS011;1641;51.306;12.384;2023-02-15T11:18:15;7.57;;;4.40;;
3257;SDS011;1641;51.306;12.384;2023-02-15T11:21:04;5.40;;;4.30;;
3257;SDS011;1641;51.306;12.384;2023-02-15T11:23:35;5.63;;;4.28;;
3257;SDS011;1641;51.306;12.384;2023-02-15T11:26:04;5.75;;;4.72;;
3257;SDS011;1641;51.306;12.384;2023-02-15T11:28:38;6.60;;;4.40;;
3257;SDS011;1641;51.306;12.384;2023-02-15T11:31:14;7.88;;;5.22;;
3257;SDS011;1641;51.306;12.384;2023-02-15T11:33:43;8.07;;;4.30;;
3257;SDS011;1641;51.306;12.384;2023-02-15T11:36:16;6.40;;;4.35;;
3257;SDS011;1641;51.306;12.384;2023-02-15T11:38:49;9.40;;;4.80;;
3257;SDS011;1641;51.306;12.384;2023-02-15T11:41:22;6.35;;;4.28;;
3257;SDS011;1641;51.306;12.384;2023-02-15T11:46:58;8.50;;;4.43;;
3257;SDS011;1641;51.306;12.384;2023-02-15T11:52:52;8.60;;;4.15;;
3257;SDS011;1641;51.306;12.384;2023-02-15T12:09:40;12.05;;;5.25;;
3257;SDS011;1641;51.306;12.384;2023-02-15T12:12:28;9.18;;;4.07;;
3257;SDS011;1641;51.306;12.384;2023-02-15T12:15:03;7.10;;;4.30;;
3257;SDS011;1641;51.306;12.384;2023-02-15T12:17:34;5.78;;;4.10;;
3257;SDS011;1641;51.306;12.384;2023-02-15T12:23:27;7.05;;;4.15;;
3257;SDS011;1641;51.306;12.384;2023-02-15T12:25:54;12.30;;;3.85;;
3257;SDS011;1641;51.306;12.384;2023-02-15T12:28:36;9.95;;;4.75;;
3257;SDS011;1641;51.306;12.384;2023-02-15T12:31:24;10.68;;;4.20;;
3257;SDS011;1641;51.306;12.384;2023-02-15T12:37:16;5.93;;;3.63;;
3257;SDS011;1641;51.306;12.384;2023-02-15T12:39:54;9.20;;;6.73;;
3257;SDS011;1641;51.306;12.384;2023-02-15T12:42:21;8.70;;;3.90;;
3257;SDS011;1641;51.306;12.384;2023-02-15T12:47:25;8.52;;;4.43;;
3257;SDS011;1641;51.306;12.384;2023-02-15T12:56:09;7.20;;;5.25;;
3257;SDS011;1641;51.306;12.384;2023-02-15T12:58:35;6.57;;;5.13;;
3257;SDS011;1641;51.306;12.384;2023-02-15T13:01:04;8.70;;;4.85;;
3257;SDS011;1641;51.306;12.384;2023-02-15T13:06:31;7.03;;;4.03;;
3257;SDS011;1641;51.306;12.384;2023-02-15T13:09:14;6.03;;;4.82;;
3257;SDS011;1641;51.306;12.384;2023-02-15T13:11:43;7.47;;;4.65;;
3257;SDS011;1641;51.306;12.384;2023-02-15T13:14:17;6.60;;;4.90;;
3257;SDS011;1641;51.306;12.384;2023-02-15T13:17:03;4.70;;;4.18;;
3257;SDS011;1641;51.306;12.384;2023-02-15T13:19:36;6.03;;;3.95;;
3257;SDS011;1641;51.306;12.384;2023-02-15T13:22:08;7.07;;;3.78;;
3257;SDS011;1641;51.306;12.384;2023-02-15T13:24:39;6.07;;;4.72;;
3257;SDS011;1641;51.306;12.384;2023-02-15T13:27:09;5.88;;;3.80;;
3257;SDS011;1641;51.306;12.384;2023-02-15T13:32:30;7.45;;;3.67;;
3257;SDS011;1641;51.306;12.384;2023-02-15T13:34:59;8.63;;;3.90;;
3257;SDS011;1641;51.306;12.384;2023-02-15T13:40:22;3.60;;;3.17;;
3257;SDS011;1641;51.306;12.384;2023-02-15T13:51:38;4.05;;;3.63;;
3257;SDS011;1641;51.306;12.384;2023-02-15T14:24:37;6.40;;;3.83;;
3257;SDS011;1641;51.306;12.384;2023-02-15T14:27:18;5.75;;;3.17;;
3257;SDS011;1641;51.306;12.384;2023-02-15T14:29:57;40.28;;;19.35;;
3257;SDS011;1641;51.306;12.384;2023-02-15T14:32:32;46.97;;;22.48;;
3257;SDS011;1641;51.306;12.384;2023-02-15T14:35:04;11.00;;;5.80;;
3257;SDS011;1641;51.306;12.384;2023-02-15T14:46:21;4.63;;;2.92;;
3257;SDS011;1641;51.306;12.384;2023-02-15T14:48:51;4.25;;;2.47;;
3257;SDS011;1641;51.306;12.384;2023-02-15T14:54:03;5.53;;;4.13;;
3257;SDS011;1641;51.306;12.384;2023-02-15T14:56:28;5.22;;;3.63;;
3257;SDS011;1641;51.306;12.384;2023-02-15T14:58:54;8.00;;;4.47;;
3257;SDS011;1641;51.306;12.384;2023-02-15T15:01:26;5.18;;;3.95;;
3257;SDS011;1641;51.306;12.384;2023-02-15T15:03:58;17.92;;;9.82;;
3257;SDS011;1641;51.306;12.384;2023-02-15T15:06:29;9.07;;;6.30;;
3257;SDS011;1641;51.306;12.384;2023-02-15T15:08:59;9.20;;;6.95;;
3257;SDS011;1641;51.306;12.384;2023-02-15T15:11:40;7.07;;;3.65;;
3257;SDS011;1641;51.306;12.384;2023-02-15T15:14:07;64.78;;;30.52;;
3257;SDS011;1641;51.306;12.384;2023-02-15T15:19:08;7.40;;;4.00;;
3257;SDS011;1641;51.306;12.384;2023-02-15T15:35:33;10.48;;;4.43;;
3257;SDS011;1641;51.306;12.384;2023-02-15T15:41:19;5.40;;;3.30;;
3257;SDS011;1641;51.306;12.384;2023-02-15T15:49:57;13.95;;;7.63;;
3257;SDS011;1641;51.306;12.384;2023-02-15T15:52:24;11.77;;;7.00;;
3257;SDS011;1641;51.306;12.384;2023-02-15T15:54:54;16.40;;;7.63;;
3257;SDS011;1641;51.306;12.384;2023-02-15T15:59:52;19.58;;;10.43;;
3257;SDS011;1641;51.306;12.384;2023-02-15T16:02:19;16.40;;;9.18;;
3257;SDS011;1641;51.306;12.384;2023-02-15T16:04:45;8.40;;;5.90;;
3257;SDS011;1641;51.306;12.384;2023-02-15T16:10:05;8.77;;;4.88;;
3257;SDS011;1641;51.306;12.384;2023-02-15T16:12:45;6.07;;;4.47;;
3257;SDS011;1641;51.306;12.384;2023-02-15T16:15:16;7.10;;;5.15;;
3257;SDS011;1641;51.306;12.384;2023-02-15T16:20:17;9.60;;;5.88;;
3257;SDS011;1641;51.306;12.384;2023-02-15T16:22:47;11.90;;;7.10;;
3257;SDS011;1641;51.306;12.384;2023-02-15T16:28:11;9.48;;;6.38;;
3257;SDS011;1641;51.306;12.384;2023-02-15T16:30:38;10.73;;;6.13;;
3257;SDS011;1641;51.306;12.384;2023-02-15T16:33:09;37.08;;;20.08;;
3257;SDS011;1641;51.306;12.384;2023-02-15T16:35:55;19.23;;;10.98;;
3257;SDS011;1641;51.306;12.384;2023-02-15T16:41:09;7.05;;;4.90;;
3257;SDS011;1641;51.306;12.384;2023-02-15T16:43:37;13.45;;;9.98;;
3257;SDS011;1641;51.306;12.384;2023-02-15T16:46:12;11.15;;;7.30;;
3257;SDS011;1641;51.306;12.384;2023-02-15T16:48:55;11.52;;;7.20;;
3257;SDS011;1641;51.306;12.384;2023-02-15T16:51:27;12.60;;;7.80;;
3257;SDS011;1641;51.306;12.384;2023-02-15T16:53:55;11.57;;;7.93;;
3257;SDS011;1641;51.306;12.384;2023-02-15T16:56:25;10.00;;;6.65;;
3257;SDS011;1641;51.306;12.384;2023-02-15T16:58:55;19.25;;;7.22;;
3257;SDS011;1641;51.306;12.384;2023-02-15T17:01:23;12.07;;;7.13;;
3257;SDS011;1641;51.306;12.384;2023-02-15T17:03:50;9.57;;;6.70;;
3257;SDS011;1641;51.306;12.384;2023-02-15T17:06:35;21.42;;;10.30;;
3257;SDS011;1641;51.306;12.384;2023-02-15T17:09:05;17.90;;;8.40;;
3257;SDS011;1641;51.306;12.384;2023-02-15T17:11:43;17.73;;;10.27;;
3257;SDS011;1641;51.306;12.384;2023-02-15T17:16:42;14.57;;;9.68;;
3257;SDS011;1641;51.306;12.384;2023-02-15T17:19:13;17.98;;;10.60;;
3257;SDS011;1641;51.306;12.384;2023-02-15T17:24:25;22.65;;;11.40;;
3257;SDS011;1641;51.306;12.384;2023-02-15T17:26:59;15.88;;;9.68;;
3257;SDS011;1641;51.306;12.384;2023-02-15T17:29:37;14.45;;;8.85;;
3257;SDS011;1641;51.306;12.384;2023-02-15T17:32:05;21.63;;;11.80;;
3257;SDS011;1641;51.306;12.384;2023-02-15T17:34:46;20.25;;;11.63;;
3257;SDS011;1641;51.306;12.384;2023-02-15T17:37:32;16.73;;;10.07;;
3257;SDS011;1641;51.306;12.384;2023-02-15T17:40:20;25.13;;;11.77;;
3257;SDS011;1641;51.306;12.384;2023-02-15T17:42:50;18.77;;;11.40;;
3257;SDS011;1641;51.306;12.384;2023-02-15T17:45:15;26.55;;;11.48;;
3257;SDS011;1641;51.306;12.384;2023-02-15T17:47:41;26.58;;;14.63;;
3257;SDS011;1641;51.306;12.384;2023-02-15T17:50:07;19.20;;;11.60;;
3257;SDS011;1641;51.306;12.384;2023-02-15T17:52:43;23.25;;;14.10;;
3257;SDS011;1641;51.306;12.384;2023-02-15T17:55:12;16.38;;;10.63;;
3257;SDS011;1641;51.306;12.384;2023-02-15T17:58:01;11.23;;;8.27;;
3257;SDS011;1641;51.306;12.384;2023-02-15T18:00:29;11.02;;;7.32;;
3257;SDS011;1641;51.306;12.384;2023-02-15T18:06:42;14.60;;;9.48;;
3257;SDS011;1641;51.306;12.384;2023-02-15T18:09:29;11.68;;;8.05;;
3257;SDS011;1641;51.306;12.384;2023-02-15T18:12:24;13.38;;;9.80;;
3257;SDS011;1641;51.306;12.384;2023-02-15T18:14:57;15.45;;;9.20;;
3257;SDS011;1641;51.306;12.384;2023-02-15T18:17:24;16.30;;;10.15;;
3257;SDS011;1641;51.306;12.384;2023-02-15T18:20:04;16.73;;;9.88;;
3257;SDS011;1641;51.306;12.384;2023-02-15T18:22:42;17.93;;;10.57;;
3257;SDS011;1641;51.306;12.384;2023-02-15T18:25:11;10.10;;;8.30;;
3257;SDS011;1641;51.306;12.384;2023-02-15T18:27:42;15.40;;;10.88;;
3257;SDS011;1641;51.306;12.384;2023-02-15T18:30:11;99.25;;;45.53;;
3257;SDS011;1641;51.306;12.384;2023-02-15T18:32:48;20.13;;;12.38;;
3257;SDS011;1641;51.306;12.384;2023-02-15T18:35:19;14.50;;;9.57;;
3257;SDS011;1641;51.306;12.384;2023-02-15T18:37:47;17.10;;;8.98;;
3257;SDS011;1641;51.306;12.384;2023-02-15T18:40:14;14.55;;;9.50;;
3257;SDS011;1641;51.306;12.384;2023-02-15T18:42:42;15.02;;;9.77;;
3257;SDS011;1641;51.306;12.384;2023-02-15T18:45:19;99.82;;;44.90;;
3257;SDS011;1641;51.306;12.384;2023-02-15T18:47:51;52.90;;;25.50;;
3257;SDS011;1641;51.306;12.384;2023-02-15T18:50:17;21.70;;;13.23;;
3257;SDS011;1641;51.306;12.384;2023-02-15T18:52:45;21.73;;;13.43;;
3257;SDS011;1641;51.306;12.384;2023-02-15T18:57:41;17.88;;;12.32;;
3257;SDS011;1641;51.306;12.384;2023-02-15T19:00:19;157.55;;;69.70;;
3257;SDS011;1641;51.306;12.384;2023-02-15T19:02:45;27.20;;;15.20;;
3257;SDS011;1641;51.306;12.384;2023-02-15T19:05:10;20.58;;;13.30;;
3257;SDS011;1641;51.306;12.384;2023-02-15T19:07:36;58.92;;;28.73;;